sensor_id;sensor_type;location;lat;lon;timestamp;temperature;humidity
3770;DHT22;1900;48.890;9.190;2023-04-03T00:02:07;11.30;53.50
3770;DHT22;1900;48.890;9.190;2023-04-03T00:04:33;11.30;53.40
3770;DHT22;1900;48.890;9.190;2023-04-03T00:06:59;11.30;53.40
3770;DHT22;1900;48.890;9.190;2023-04-03T00:09:24;11.30;53.40
3770;DHT22;1900;48.890;9.190;2023-04-03T00:11:50;11.30;53.40
3770;DHT22;1900;48.890;9.190;2023-04-03T00:14:16;11.30;53.40
3770;DHT22;1900;48.890;9.190;2023-04-03T00:16:41;11.30;53.40
3770;DHT22;1900;48.890;9.190;2023-04-03T00:19:07;11.30;53.40
3770;DHT22;1900;48.890;9.190;2023-04-03T00:21:33;11.30;53.40
3770;DHT22;1900;48.890;9.190;2023-04-03T00:23:59;11.30;53.40
3770;DHT22;1900;48.890;9.190;2023-04-03T00:26:25;11.30;53.40
3770;DHT22;1900;48.890;9.190;2023-04-03T00:28:51;11.30;53.40
3770;DHT22;1900;48.890;9.190;2023-04-03T00:31:17;11.30;53.40
3770;DHT22;1900;48.890;9.190;2023-04-03T00:33:42;11.30;53.20
3770;DHT22;1900;48.890;9.190;2023-04-03T00:36:09;11.30;53.10
3770;DHT22;1900;48.890;9.190;2023-04-03T00:38:36;11.20;52.90
3770;DHT22;1900;48.890;9.190;2023-04-03T00:41:02;11.20;52.90
3770;DHT22;1900;48.890;9.190;2023-04-03T00:43:28;11.20;53.00
3770;DHT22;1900;48.890;9.190;2023-04-03T00:45:58;11.20;52.90
3770;DHT22;1900;48.890;9.190;2023-04-03T00:48:38;11.10;52.70
3770;DHT22;1900;48.890;9.190;2023-04-03T00:51:08;11.10;52.80
3770;DHT22;1900;48.890;9.190;2023-04-03T00:53:43;11.10;52.70
3770;DHT22;1900;48.890;9.190;2023-04-03T00:56:13;11.00;52.70
3770;DHT22;1900;48.890;9.190;2023-04-03T00:58:54;11.00;52.80
3770;DHT22;1900;48.890;9.190;2023-04-03T01:01:25;11.00;52.90
3770;DHT22;1900;48.890;9.190;2023-04-03T01:03:51;11.00;52.90
3770;DHT22;1900;48.890;9.190;2023-04-03T01:06:21;10.90;52.80
3770;DHT22;1900;48.890;9.190;2023-04-03T01:08:49;10.90;52.70
3770;DHT22;1900;48.890;9.190;2023-04-03T01:11:16;10.90;52.80
3770;DHT22;1900;48.890;9.190;2023-04-03T01:13:42;10.90;52.80
3770;DHT22;1900;48.890;9.190;2023-04-03T01:16:08;10.90;52.80
3770;DHT22;1900;48.890;9.190;2023-04-03T01:18:36;10.90;52.80
3770;DHT22;1900;48.890;9.190;2023-04-03T01:21:31;10.90;52.70
3770;DHT22;1900;48.890;9.190;2023-04-03T01:24:27;10.80;52.50
3770;DHT22;1900;48.890;9.190;2023-04-03T01:26:56;10.80;52.60
3770;DHT22;1900;48.890;9.190;2023-04-03T01:29:21;10.80;52.60
3770;DHT22;1900;48.890;9.190;2023-04-03T01:34:17;10.70;52.50
3770;DHT22;1900;48.890;9.190;2023-04-03T01:36:43;10.70;52.60
3770;DHT22;1900;48.890;9.190;2023-04-03T01:39:09;10.70;52.70
3770;DHT22;1900;48.890;9.190;2023-04-03T01:41:35;10.70;52.70
3770;DHT22;1900;48.890;9.190;2023-04-03T01:44:09;10.70;52.70
3770;DHT22;1900;48.890;9.190;2023-04-03T01:46:35;10.70;52.70
3770;DHT22;1900;48.890;9.190;2023-04-03T01:49:03;10.70;52.80
3770;DHT22;1900;48.890;9.190;2023-04-03T01:51:29;10.70;52.80
3770;DHT22;1900;48.890;9.190;2023-04-03T01:53:55;10.70;52.90
3770;DHT22;1900;48.890;9.190;2023-04-03T01:56:20;10.70;52.80
3770;DHT22;1900;48.890;9.190;2023-04-03T01:58:47;10.70;52.90
3770;DHT22;1900;48.890;9.190;2023-04-03T02:01:13;10.70;52.90
3770;DHT22;1900;48.890;9.190;2023-04-03T02:03:39;10.70;52.90
3770;DHT22;1900;48.890;9.190;2023-04-03T02:06:05;10.80;52.90
3770;DHT22;1900;48.890;9.190;2023-04-03T02:08:31;10.80;52.90
3770;DHT22;1900;48.890;9.190;2023-04-03T02:10:56;10.70;52.90
3770;DHT22;1900;48.890;9.190;2023-04-03T02:13:22;10.80;52.90
3770;DHT22;1900;48.890;9.190;2023-04-03T02:15:48;10.80;52.80
3770;DHT22;1900;48.890;9.190;2023-04-03T02:18:16;10.80;52.70
3770;DHT22;1900;48.890;9.190;2023-04-03T02:20:42;10.80;52.70
3770;DHT22;1900;48.890;9.190;2023-04-03T02:23:08;10.70;52.50
3770;DHT22;1900;48.890;9.190;2023-04-03T02:25:34;10.70;52.40
3770;DHT22;1900;48.890;9.190;2023-04-03T02:28:00;10.70;52.50
3770;DHT22;1900;48.890;9.190;2023-04-03T02:30:25;10.70;52.60
3770;DHT22;1900;48.890;9.190;2023-04-03T02:32:52;10.60;52.50
3770;DHT22;1900;48.890;9.190;2023-04-03T02:35:19;10.60;52.40
3770;DHT22;1900;48.890;9.190;2023-04-03T02:37:47;10.60;52.40
3770;DHT22;1900;48.890;9.190;2023-04-03T02:40:13;10.60;52.40
3770;DHT22;1900;48.890;9.190;2023-04-03T02:42:39;10.60;52.40
3770;DHT22;1900;48.890;9.190;2023-04-03T02:45:05;10.60;52.30
3770;DHT22;1900;48.890;9.190;2023-04-03T02:47:32;10.60;52.30
3770;DHT22;1900;48.890;9.190;2023-04-03T02:49:57;10.50;52.20
3770;DHT22;1900;48.890;9.190;2023-04-03T02:52:23;10.50;52.20
3770;DHT22;1900;48.890;9.190;2023-04-03T02:54:51;10.50;52.20
3770;DHT22;1900;48.890;9.190;2023-04-03T02:57:17;10.50;52.20
3770;DHT22;1900;48.890;9.190;2023-04-03T02:59:42;10.50;52.20
3770;DHT22;1900;48.890;9.190;2023-04-03T03:02:10;10.50;52.20
3770;DHT22;1900;48.890;9.190;2023-04-03T03:04:37;10.50;52.30
3770;DHT22;1900;48.890;9.190;2023-04-03T03:07:03;10.50;52.30
3770;DHT22;1900;48.890;9.190;2023-04-03T03:09:28;10.50;52.30
3770;DHT22;1900;48.890;9.190;2023-04-03T03:11:55;10.50;52.40
3770;DHT22;1900;48.890;9.190;2023-04-03T03:14:21;10.50;52.40
3770;DHT22;1900;48.890;9.190;2023-04-03T03:16:47;10.50;52.50
3770;DHT22;1900;48.890;9.190;2023-04-03T03:19:13;10.50;52.50
3770;DHT22;1900;48.890;9.190;2023-04-03T03:21:38;10.50;52.50
3770;DHT22;1900;48.890;9.190;2023-04-03T03:24:04;10.50;52.40
3770;DHT22;1900;48.890;9.190;2023-04-03T03:26:31;10.50;52.40
3770;DHT22;1900;48.890;9.190;2023-04-03T03:28:57;10.50;52.50
3770;DHT22;1900;48.890;9.190;2023-04-03T03:31:23;10.60;52.50
3770;DHT22;1900;48.890;9.190;2023-04-03T03:33:49;10.50;52.40
3770;DHT22;1900;48.890;9.190;2023-04-03T03:36:15;10.50;53.00
3770;DHT22;1900;48.890;9.190;2023-04-03T03:38:40;10.60;52.50
3770;DHT22;1900;48.890;9.190;2023-04-03T03:41:07;10.60;52.40
3770;DHT22;1900;48.890;9.190;2023-04-03T03:43:34;10.50;52.30
3770;DHT22;1900;48.890;9.190;2023-04-03T03:46:00;10.60;52.40
3770;DHT22;1900;48.890;9.190;2023-04-03T03:48:27;10.60;52.40
3770;DHT22;1900;48.890;9.190;2023-04-03T03:50:53;10.60;52.40
3770;DHT22;1900;48.890;9.190;2023-04-03T03:53:22;10.60;52.40
3770;DHT22;1900;48.890;9.190;2023-04-03T03:55:51;10.60;52.40
3770;DHT22;1900;48.890;9.190;2023-04-03T03:58:19;10.50;52.30
3770;DHT22;1900;48.890;9.190;2023-04-03T04:00:46;10.50;52.30
3770;DHT22;1900;48.890;9.190;2023-04-03T04:03:12;10.50;52.30
3770;DHT22;1900;48.890;9.190;2023-04-03T04:05:38;10.60;52.40
3770;DHT22;1900;48.890;9.190;2023-04-03T04:08:04;10.50;52.20
3770;DHT22;1900;48.890;9.190;2023-04-03T04:10:30;10.60;52.30
3770;DHT22;1900;48.890;9.190;2023-04-03T04:12:57;10.50;52.20
3770;DHT22;1900;48.890;9.190;2023-04-03T04:15:24;10.50;52.10
3770;DHT22;1900;48.890;9.190;2023-04-03T04:17:51;10.50;52.20
3770;DHT22;1900;48.890;9.190;2023-04-03T04:20:18;10.50;52.20
3770;DHT22;1900;48.890;9.190;2023-04-03T04:22:46;10.60;52.30
3770;DHT22;1900;48.890;9.190;2023-04-03T04:25:12;10.50;52.20
3770;DHT22;1900;48.890;9.190;2023-04-03T04:27:39;10.50;52.30
3770;DHT22;1900;48.890;9.190;2023-04-03T04:30:05;10.60;52.40
3770;DHT22;1900;48.890;9.190;2023-04-03T04:32:32;10.60;52.40
3770;DHT22;1900;48.890;9.190;2023-04-03T04:34:58;10.60;52.40
3770;DHT22;1900;48.890;9.190;2023-04-03T04:37:24;10.60;52.40
3770;DHT22;1900;48.890;9.190;2023-04-03T04:39:51;10.60;52.30
3770;DHT22;1900;48.890;9.190;2023-04-03T04:42:17;10.60;52.30
3770;DHT22;1900;48.890;9.190;2023-04-03T04:44:44;10.60;52.30
3770;DHT22;1900;48.890;9.190;2023-04-03T04:47:12;10.60;52.30
3770;DHT22;1900;48.890;9.190;2023-04-03T04:49:41;10.60;52.30
3770;DHT22;1900;48.890;9.190;2023-04-03T04:52:07;10.60;52.30
3770;DHT22;1900;48.890;9.190;2023-04-03T04:54:33;10.60;52.30
3770;DHT22;1900;48.890;9.190;2023-04-03T04:56:59;10.60;52.30
3770;DHT22;1900;48.890;9.190;2023-04-03T04:59:26;10.60;52.20
3770;DHT22;1900;48.890;9.190;2023-04-03T05:01:54;10.60;52.30
3770;DHT22;1900;48.890;9.190;2023-04-03T05:04:20;10.60;52.30
3770;DHT22;1900;48.890;9.190;2023-04-03T05:06:50;10.60;52.30
3770;DHT22;1900;48.890;9.190;2023-04-03T05:09:21;10.60;52.30
3770;DHT22;1900;48.890;9.190;2023-04-03T05:11:48;10.60;52.30
3770;DHT22;1900;48.890;9.190;2023-04-03T05:14:15;10.60;52.30
3770;DHT22;1900;48.890;9.190;2023-04-03T05:16:41;10.70;52.30
3770;DHT22;1900;48.890;9.190;2023-04-03T05:19:06;10.60;52.10
3770;DHT22;1900;48.890;9.190;2023-04-03T05:21:33;10.60;52.00
3770;DHT22;1900;48.890;9.190;2023-04-03T05:24:01;10.60;51.90
3770;DHT22;1900;48.890;9.190;2023-04-03T05:26:30;10.60;52.00
3770;DHT22;1900;48.890;9.190;2023-04-03T05:28:57;10.60;52.10
3770;DHT22;1900;48.890;9.190;2023-04-03T05:31:23;10.60;52.10
3770;DHT22;1900;48.890;9.190;2023-04-03T05:33:49;10.50;52.00
3770;DHT22;1900;48.890;9.190;2023-04-03T05:36:17;10.60;52.10
3770;DHT22;1900;48.890;9.190;2023-04-03T05:38:46;10.50;52.00
3770;DHT22;1900;48.890;9.190;2023-04-03T05:41:13;10.60;52.10
3770;DHT22;1900;48.890;9.190;2023-04-03T05:43:40;10.50;52.10
3770;DHT22;1900;48.890;9.190;2023-04-03T05:46:12;10.50;52.10
3770;DHT22;1900;48.890;9.190;2023-04-03T05:48:39;10.60;52.10
3770;DHT22;1900;48.890;9.190;2023-04-03T05:51:06;10.50;52.10
3770;DHT22;1900;48.890;9.190;2023-04-03T05:53:36;10.50;52.10
3770;DHT22;1900;48.890;9.190;2023-04-03T05:56:04;10.60;52.20
3770;DHT22;1900;48.890;9.190;2023-04-03T05:58:34;10.50;52.10
3770;DHT22;1900;48.890;9.190;2023-04-03T06:01:00;10.60;52.10
3770;DHT22;1900;48.890;9.190;2023-04-03T06:03:26;10.50;52.00
3770;DHT22;1900;48.890;9.190;2023-04-03T06:05:52;10.60;52.10
3770;DHT22;1900;48.890;9.190;2023-04-03T06:08:18;10.60;52.20
3770;DHT22;1900;48.890;9.190;2023-04-03T06:10:44;10.60;52.10
3770;DHT22;1900;48.890;9.190;2023-04-03T06:13:11;10.50;52.00
3770;DHT22;1900;48.890;9.190;2023-04-03T06:15:37;10.60;52.10
3770;DHT22;1900;48.890;9.190;2023-04-03T06:18:04;10.60;52.20
3770;DHT22;1900;48.890;9.190;2023-04-03T06:20:29;10.60;52.20
3770;DHT22;1900;48.890;9.190;2023-04-03T06:22:56;10.60;52.10
3770;DHT22;1900;48.890;9.190;2023-04-03T06:25:22;10.60;52.30
3770;DHT22;1900;48.890;9.190;2023-04-03T06:27:48;10.60;52.10
3770;DHT22;1900;48.890;9.190;2023-04-03T06:30:14;10.60;52.10
3770;DHT22;1900;48.890;9.190;2023-04-03T06:32:40;10.60;52.10
3770;DHT22;1900;48.890;9.190;2023-04-03T06:35:06;10.60;52.10
3770;DHT22;1900;48.890;9.190;2023-04-03T06:37:31;10.60;52.10
3770;DHT22;1900;48.890;9.190;2023-04-03T06:39:58;10.60;52.10
3770;DHT22;1900;48.890;9.190;2023-04-03T06:42:26;10.60;52.10
3770;DHT22;1900;48.890;9.190;2023-04-03T06:44:58;10.60;52.10
3770;DHT22;1900;48.890;9.190;2023-04-03T06:47:24;10.60;52.10
3770;DHT22;1900;48.890;9.190;2023-04-03T06:49:49;10.60;52.10
3770;DHT22;1900;48.890;9.190;2023-04-03T06:52:15;10.60;52.10
3770;DHT22;1900;48.890;9.190;2023-04-03T06:54:41;10.60;52.10
3770;DHT22;1900;48.890;9.190;2023-04-03T06:57:07;10.60;52.00
3770;DHT22;1900;48.890;9.190;2023-04-03T06:59:34;10.60;52.00
3770;DHT22;1900;48.890;9.190;2023-04-03T07:02:01;10.60;52.00
3770;DHT22;1900;48.890;9.190;2023-04-03T07:04:26;10.60;52.00
3770;DHT22;1900;48.890;9.190;2023-04-03T07:06:52;10.60;52.00
3770;DHT22;1900;48.890;9.190;2023-04-03T07:09:18;10.60;51.90
3770;DHT22;1900;48.890;9.190;2023-04-03T07:11:44;10.60;51.90
3770;DHT22;1900;48.890;9.190;2023-04-03T07:14:10;10.60;51.90
3770;DHT22;1900;48.890;9.190;2023-04-03T07:16:36;10.50;51.70
3770;DHT22;1900;48.890;9.190;2023-04-03T07:19:02;10.60;51.80
3770;DHT22;1900;48.890;9.190;2023-04-03T07:21:28;10.50;51.80
3770;DHT22;1900;48.890;9.190;2023-04-03T07:23:54;10.50;51.90
3770;DHT22;1900;48.890;9.190;2023-04-03T07:26:21;10.60;52.00
3770;DHT22;1900;48.890;9.190;2023-04-03T07:28:47;10.50;51.90
3770;DHT22;1900;48.890;9.190;2023-04-03T07:31:14;10.60;52.00
3770;DHT22;1900;48.890;9.190;2023-04-03T07:33:41;10.60;52.00
3770;DHT22;1900;48.890;9.190;2023-04-03T07:36:09;10.60;52.10
3770;DHT22;1900;48.890;9.190;2023-04-03T07:38:35;10.60;52.00
3770;DHT22;1900;48.890;9.190;2023-04-03T07:41:02;10.60;52.00
3770;DHT22;1900;48.890;9.190;2023-04-03T07:43:28;10.60;52.00
3770;DHT22;1900;48.890;9.190;2023-04-03T07:45:53;10.60;52.10
3770;DHT22;1900;48.890;9.190;2023-04-03T07:48:24;10.60;52.00
3770;DHT22;1900;48.890;9.190;2023-04-03T07:50:51;10.60;52.10
3770;DHT22;1900;48.890;9.190;2023-04-03T07:53:18;10.60;52.20
3770;DHT22;1900;48.890;9.190;2023-04-03T07:55:47;10.70;52.30
3770;DHT22;1900;48.890;9.190;2023-04-03T07:58:16;10.70;52.30
3770;DHT22;1900;48.890;9.190;2023-04-03T08:00:42;10.70;52.30
3770;DHT22;1900;48.890;9.190;2023-04-03T08:03:10;10.80;52.30
3770;DHT22;1900;48.890;9.190;2023-04-03T08:05:38;10.80;52.40
3770;DHT22;1900;48.890;9.190;2023-04-03T08:08:05;10.80;52.50
3770;DHT22;1900;48.890;9.190;2023-04-03T08:10:31;10.90;52.60
3770;DHT22;1900;48.890;9.190;2023-04-03T08:12:57;10.90;52.50
3770;DHT22;1900;48.890;9.190;2023-04-03T08:15:24;10.90;52.60
3770;DHT22;1900;48.890;9.190;2023-04-03T08:17:50;11.00;52.70
3770;DHT22;1900;48.890;9.190;2023-04-03T08:20:16;11.00;52.70
3770;DHT22;1900;48.890;9.190;2023-04-03T08:22:41;11.10;52.70
3770;DHT22;1900;48.890;9.190;2023-04-03T08:25:07;11.10;52.80
3770;DHT22;1900;48.890;9.190;2023-04-03T08:27:33;11.10;52.80
3770;DHT22;1900;48.890;9.190;2023-04-03T08:29:59;11.20;52.90
3770;DHT22;1900;48.890;9.190;2023-04-03T08:32:25;11.20;52.80
3770;DHT22;1900;48.890;9.190;2023-04-03T08:34:51;11.20;52.80
3770;DHT22;1900;48.890;9.190;2023-04-03T08:37:16;11.20;52.70
3770;DHT22;1900;48.890;9.190;2023-04-03T08:39:43;11.30;52.80
3770;DHT22;1900;48.890;9.190;2023-04-03T08:45:03;11.30;52.70
3770;DHT22;1900;48.890;9.190;2023-04-03T08:47:47;11.30;52.60
3770;DHT22;1900;48.890;9.190;2023-04-03T08:50:20;11.40;52.60
3770;DHT22;1900;48.890;9.190;2023-04-03T08:52:50;11.40;52.70
3770;DHT22;1900;48.890;9.190;2023-04-03T08:55:26;11.40;52.70
3770;DHT22;1900;48.890;9.190;2023-04-03T09:00:50;11.40;52.60
3770;DHT22;1900;48.890;9.190;2023-04-03T09:03:18;11.40;52.60
3770;DHT22;1900;48.890;9.190;2023-04-03T09:08:47;11.50;52.80
3770;DHT22;1900;48.890;9.190;2023-04-03T09:11:27;11.50;52.80
3770;DHT22;1900;48.890;9.190;2023-04-03T09:14:11;11.50;52.80
3770;DHT22;1900;48.890;9.190;2023-04-03T09:16:55;11.60;53.00
3770;DHT22;1900;48.890;9.190;2023-04-03T09:21:57;11.70;53.40
3770;DHT22;1900;48.890;9.190;2023-04-03T09:24:24;11.70;53.70
3770;DHT22;1900;48.890;9.190;2023-04-03T09:29:23;11.80;53.10
3770;DHT22;1900;48.890;9.190;2023-04-03T09:31:52;11.80;53.10
3770;DHT22;1900;48.890;9.190;2023-04-03T09:34:26;11.90;53.20
3770;DHT22;1900;48.890;9.190;2023-04-03T09:36:55;11.90;53.10
3770;DHT22;1900;48.890;9.190;2023-04-03T09:39:22;12.00;53.10
3770;DHT22;1900;48.890;9.190;2023-04-03T09:42:03;12.00;53.10
3770;DHT22;1900;48.890;9.190;2023-04-03T09:44:37;12.10;53.30
3770;DHT22;1900;48.890;9.190;2023-04-03T09:52:35;12.20;53.50
3770;DHT22;1900;48.890;9.190;2023-04-03T09:55:07;12.20;53.50
3770;DHT22;1900;48.890;9.190;2023-04-03T09:57:34;12.30;53.40
3770;DHT22;1900;48.890;9.190;2023-04-03T10:00:01;12.30;53.30
3770;DHT22;1900;48.890;9.190;2023-04-03T10:02:39;12.40;53.40
3770;DHT22;1900;48.890;9.190;2023-04-03T10:10:36;12.50;54.00
3770;DHT22;1900;48.890;9.190;2023-04-03T10:13:15;12.50;53.50
3770;DHT22;1900;48.890;9.190;2023-04-03T10:16:07;12.50;53.60
3770;DHT22;1900;48.890;9.190;2023-04-03T10:18:49;12.60;53.70
3770;DHT22;1900;48.890;9.190;2023-04-03T10:24:21;12.70;53.70
3770;DHT22;1900;48.890;9.190;2023-04-03T10:27:27;12.70;53.50
3770;DHT22;1900;48.890;9.190;2023-04-03T10:32:45;12.80;53.40
3770;DHT22;1900;48.890;9.190;2023-04-03T10:35:37;12.80;52.90
3770;DHT22;1900;48.890;9.190;2023-04-03T10:46:15;12.80;52.80
3770;DHT22;1900;48.890;9.190;2023-04-03T10:51:44;12.80;52.40
3770;DHT22;1900;48.890;9.190;2023-04-03T10:56:56;12.70;52.30
3770;DHT22;1900;48.890;9.190;2023-04-03T10:59:33;12.70;52.30
3770;DHT22;1900;48.890;9.190;2023-04-03T11:02:11;12.70;52.30
3770;DHT22;1900;48.890;9.190;2023-04-03T11:04:42;12.70;53.00
3770;DHT22;1900;48.890;9.190;2023-04-03T11:07:17;12.70;52.50
3770;DHT22;1900;48.890;9.190;2023-04-03T11:09:46;12.70;52.60
3770;DHT22;1900;48.890;9.190;2023-04-03T11:12:44;12.80;52.90
3770;DHT22;1900;48.890;9.190;2023-04-03T11:15:15;12.80;52.70
3770;DHT22;1900;48.890;9.190;2023-04-03T11:17:57;12.80;52.70
3770;DHT22;1900;48.890;9.190;2023-04-03T11:20:28;12.80;52.70
3770;DHT22;1900;48.890;9.190;2023-04-03T11:23:08;12.80;52.60
3770;DHT22;1900;48.890;9.190;2023-04-03T11:25:41;12.90;52.50
3770;DHT22;1900;48.890;9.190;2023-04-03T11:28:13;12.80;52.40
3770;DHT22;1900;48.890;9.190;2023-04-03T11:33:31;12.80;52.30
3770;DHT22;1900;48.890;9.190;2023-04-03T11:36:21;12.90;52.40
3770;DHT22;1900;48.890;9.190;2023-04-03T11:38:52;12.90;52.40
3770;DHT22;1900;48.890;9.190;2023-04-03T11:41:26;12.90;52.40
3770;DHT22;1900;48.890;9.190;2023-04-03T11:44:00;12.90;52.40
3770;DHT22;1900;48.890;9.190;2023-04-03T11:46:49;12.80;52.70
3770;DHT22;1900;48.890;9.190;2023-04-03T11:52:56;12.80;52.00
3770;DHT22;1900;48.890;9.190;2023-04-03T12:14:01;12.60;51.90
3770;DHT22;1900;48.890;9.190;2023-04-03T12:45:22;12.90;51.90
3770;DHT22;1900;48.890;9.190;2023-04-03T12:47:49;12.90;52.00
3770;DHT22;1900;48.890;9.190;2023-04-03T12:50:30;12.90;52.10
3770;DHT22;1900;48.890;9.190;2023-04-03T12:53:13;13.00;52.20
3770;DHT22;1900;48.890;9.190;2023-04-03T12:55:40;13.00;52.20
3770;DHT22;1900;48.890;9.190;2023-04-03T12:58:25;13.00;52.30
3770;DHT22;1900;48.890;9.190;2023-04-03T13:01:13;13.00;52.20
3770;DHT22;1900;48.890;9.190;2023-04-03T13:03:45;13.10;52.20
3770;DHT22;1900;48.890;9.190;2023-04-03T13:06:32;13.10;52.20
3770;DHT22;1900;48.890;9.190;2023-04-03T13:09:01;13.10;51.90
3770;DHT22;1900;48.890;9.190;2023-04-03T13:11:32;13.10;52.50
3770;DHT22;1900;48.890;9.190;2023-04-03T13:16:25;13.10;51.80
3770;DHT22;1900;48.890;9.190;2023-04-03T13:18:55;13.10;51.70
3770;DHT22;1900;48.890;9.190;2023-04-03T13:23:51;13.10;51.80
3770;DHT22;1900;48.890;9.190;2023-04-03T13:26:19;13.10;51.80
3770;DHT22;1900;48.890;9.190;2023-04-03T13:28:46;13.20;51.90
3770;DHT22;1900;48.890;9.190;2023-04-03T13:33:43;13.10;51.90
3770;DHT22;1900;48.890;9.190;2023-04-03T13:36:21;13.20;51.90
3770;DHT22;1900;48.890;9.190;2023-04-03T13:38:59;13.20;51.90
3770;DHT22;1900;48.890;9.190;2023-04-03T13:41:34;13.20;51.80
3770;DHT22;1900;48.890;9.190;2023-04-03T13:49:30;13.40;52.50
3770;DHT22;1900;48.890;9.190;2023-04-03T13:51:57;13.40;52.40
3770;DHT22;1900;48.890;9.190;2023-04-03T13:54:33;13.50;52.50
3770;DHT22;1900;48.890;9.190;2023-04-03T13:57:00;13.50;52.20
3770;DHT22;1900;48.890;9.190;2023-04-03T13:59:34;13.60;52.20
3770;DHT22;1900;48.890;9.190;2023-04-03T14:04:35;13.60;52.20
3770;DHT22;1900;48.890;9.190;2023-04-03T14:07:10;13.70;52.30
3770;DHT22;1900;48.890;9.190;2023-04-03T14:09:37;13.70;52.20
3770;DHT22;1900;48.890;9.190;2023-04-03T14:12:07;13.70;52.00
3770;DHT22;1900;48.890;9.190;2023-04-03T14:14:35;13.70;52.00
3770;DHT22;1900;48.890;9.190;2023-04-03T14:17:03;13.70;51.90
3770;DHT22;1900;48.890;9.190;2023-04-03T14:19:35;13.70;51.90
3770;DHT22;1900;48.890;9.190;2023-04-03T14:22:17;13.70;51.90
3770;DHT22;1900;48.890;9.190;2023-04-03T14:24:44;13.80;52.10
3770;DHT22;1900;48.890;9.190;2023-04-03T14:27:27;13.90;52.50
3770;DHT22;1900;48.890;9.190;2023-04-03T14:29:56;14.00;52.50
3770;DHT22;1900;48.890;9.190;2023-04-03T14:32:24;14.00;52.40
3770;DHT22;1900;48.890;9.190;2023-04-03T14:34:51;14.00;52.40
3770;DHT22;1900;48.890;9.190;2023-04-03T14:37:29;14.10;52.40
3770;DHT22;1900;48.890;9.190;2023-04-03T14:39:57;14.10;52.00
3770;DHT22;1900;48.890;9.190;2023-04-03T14:42:26;14.10;52.00
3770;DHT22;1900;48.890;9.190;2023-04-03T14:44:52;14.10;52.10
3770;DHT22;1900;48.890;9.190;2023-04-03T14:47:25;14.20;52.30
3770;DHT22;1900;48.890;9.190;2023-04-03T14:49:51;14.20;52.20
3770;DHT22;1900;48.890;9.190;2023-04-03T14:52:24;14.20;52.20
3770;DHT22;1900;48.890;9.190;2023-04-03T14:54:51;14.30;52.30
3770;DHT22;1900;48.890;9.190;2023-04-03T14:57:17;14.30;52.20
3770;DHT22;1900;48.890;9.190;2023-04-03T14:59:44;14.30;51.90
3770;DHT22;1900;48.890;9.190;2023-04-03T15:02:36;14.30;52.30
3770;DHT22;1900;48.890;9.190;2023-04-03T15:05:05;14.20;51.30
3770;DHT22;1900;48.890;9.190;2023-04-03T15:07:42;14.20;51.40
3770;DHT22;1900;48.890;9.190;2023-04-03T15:10:20;14.20;51.70
3770;DHT22;1900;48.890;9.190;2023-04-03T15:12:47;14.20;51.80
3770;DHT22;1900;48.890;9.190;2023-04-03T15:15:14;14.30;52.00
3770;DHT22;1900;48.890;9.190;2023-04-03T15:17:41;14.30;52.10
3770;DHT22;1900;48.890;9.190;2023-04-03T15:20:16;14.30;51.80
3770;DHT22;1900;48.890;9.190;2023-04-03T15:22:42;14.40;51.90
3770;DHT22;1900;48.890;9.190;2023-04-03T15:25:08;14.40;51.70
3770;DHT22;1900;48.890;9.190;2023-04-03T15:27:35;14.30;51.40
3770;DHT22;1900;48.890;9.190;2023-04-03T15:30:01;14.30;51.30
3770;DHT22;1900;48.890;9.190;2023-04-03T15:32:26;14.30;51.30
3770;DHT22;1900;48.890;9.190;2023-04-03T15:34:53;14.30;51.10
3770;DHT22;1900;48.890;9.190;2023-04-03T15:37:19;14.30;51.00
3770;DHT22;1900;48.890;9.190;2023-04-03T15:39:45;14.20;50.80
3770;DHT22;1900;48.890;9.190;2023-04-03T15:42:11;14.20;50.90
3770;DHT22;1900;48.890;9.190;2023-04-03T15:44:38;14.10;50.90
3770;DHT22;1900;48.890;9.190;2023-04-03T15:47:03;14.10;50.70
3770;DHT22;1900;48.890;9.190;2023-04-03T15:49:30;14.10;50.60
3770;DHT22;1900;48.890;9.190;2023-04-03T15:51:58;14.10;50.80
3770;DHT22;1900;48.890;9.190;2023-04-03T15:54:23;14.10;50.90
3770;DHT22;1900;48.890;9.190;2023-04-03T15:56:50;14.00;50.90
3770;DHT22;1900;48.890;9.190;2023-04-03T15:59:15;14.00;50.80
3770;DHT22;1900;48.890;9.190;2023-04-03T16:01:42;14.00;50.70
3770;DHT22;1900;48.890;9.190;2023-04-03T16:04:08;14.00;50.60
3770;DHT22;1900;48.890;9.190;2023-04-03T16:06:35;14.00;50.60
3770;DHT22;1900;48.890;9.190;2023-04-03T16:09:01;13.90;50.60
3770;DHT22;1900;48.890;9.190;2023-04-03T16:11:27;13.90;50.50
3770;DHT22;1900;48.890;9.190;2023-04-03T16:13:53;13.80;50.40
3770;DHT22;1900;48.890;9.190;2023-04-03T16:16:19;13.80;50.40
3770;DHT22;1900;48.890;9.190;2023-04-03T16:18:45;13.80;50.30
3770;DHT22;1900;48.890;9.190;2023-04-03T16:21:13;13.80;50.20
3770;DHT22;1900;48.890;9.190;2023-04-03T16:23:40;13.70;50.20
3770;DHT22;1900;48.890;9.190;2023-04-03T16:26:06;13.70;50.30
3770;DHT22;1900;48.890;9.190;2023-04-03T16:28:32;13.70;50.20
3770;DHT22;1900;48.890;9.190;2023-04-03T16:30:59;13.70;50.30
3770;DHT22;1900;48.890;9.190;2023-04-03T16:33:26;13.70;50.40
3770;DHT22;1900;48.890;9.190;2023-04-03T16:35:52;13.60;50.20
3770;DHT22;1900;48.890;9.190;2023-04-03T16:38:18;13.60;50.20
3770;DHT22;1900;48.890;9.190;2023-04-03T16:40:47;13.60;50.10
3770;DHT22;1900;48.890;9.190;2023-04-03T16:43:15;13.60;50.00
3770;DHT22;1900;48.890;9.190;2023-04-03T16:45:41;13.50;49.90
3770;DHT22;1900;48.890;9.190;2023-04-03T16:48:07;13.50;50.00
3770;DHT22;1900;48.890;9.190;2023-04-03T16:50:33;13.50;50.00
3770;DHT22;1900;48.890;9.190;2023-04-03T16:52:59;13.50;49.90
3770;DHT22;1900;48.890;9.190;2023-04-03T16:55:24;13.50;50.00
3770;DHT22;1900;48.890;9.190;2023-04-03T16:57:50;13.40;50.00
3770;DHT22;1900;48.890;9.190;2023-04-03T17:00:16;13.40;50.10
3770;DHT22;1900;48.890;9.190;2023-04-03T17:02:42;13.40;50.10
3770;DHT22;1900;48.890;9.190;2023-04-03T17:05:08;13.40;50.10
3770;DHT22;1900;48.890;9.190;2023-04-03T17:07:34;13.40;50.00
3770;DHT22;1900;48.890;9.190;2023-04-03T17:09:59;13.40;50.00
3770;DHT22;1900;48.890;9.190;2023-04-03T17:12:26;13.40;49.90
3770;DHT22;1900;48.890;9.190;2023-04-03T17:14:52;13.30;49.30
3770;DHT22;1900;48.890;9.190;2023-04-03T17:17:20;13.30;49.40
3770;DHT22;1900;48.890;9.190;2023-04-03T17:19:46;13.20;49.50
3770;DHT22;1900;48.890;9.190;2023-04-03T17:22:12;13.20;49.50
3770;DHT22;1900;48.890;9.190;2023-04-03T17:24:38;13.20;49.50
3770;DHT22;1900;48.890;9.190;2023-04-03T17:27:04;13.10;49.50
3770;DHT22;1900;48.890;9.190;2023-04-03T17:29:29;13.10;49.50
3770;DHT22;1900;48.890;9.190;2023-04-03T17:31:55;13.10;49.50
3770;DHT22;1900;48.890;9.190;2023-04-03T17:34:21;13.10;49.60
3770;DHT22;1900;48.890;9.190;2023-04-03T17:36:47;13.10;49.50
3770;DHT22;1900;48.890;9.190;2023-04-03T17:39:13;13.10;49.50
3770;DHT22;1900;48.890;9.190;2023-04-03T17:41:39;13.10;49.50
3770;DHT22;1900;48.890;9.190;2023-04-03T17:44:05;13.10;49.60
3770;DHT22;1900;48.890;9.190;2023-04-03T17:46:31;13.10;49.50
3770;DHT22;1900;48.890;9.190;2023-04-03T17:48:57;13.10;50.10
3770;DHT22;1900;48.890;9.190;2023-04-03T17:51:25;13.00;49.50
3770;DHT22;1900;48.890;9.190;2023-04-03T17:53:51;13.00;49.50
3770;DHT22;1900;48.890;9.190;2023-04-03T17:56:22;13.00;49.50
3770;DHT22;1900;48.890;9.190;2023-04-03T17:58:49;13.00;49.50
3770;DHT22;1900;48.890;9.190;2023-04-03T18:01:17;13.00;49.50
3770;DHT22;1900;48.890;9.190;2023-04-03T18:03:44;13.00;49.50
3770;DHT22;1900;48.890;9.190;2023-04-03T18:06:13;12.90;49.30
3770;DHT22;1900;48.890;9.190;2023-04-03T18:08:42;12.90;49.30